createdAt,value
2018-11-20T00:00:17.341Z,47.74
2018-11-20T00:02:43.566Z,47.75
2018-11-20T00:05:09.548Z,47.79
2018-11-20T00:07:35.436Z,47.73
2018-11-20T00:10:01.388Z,47.71
2018-11-20T00:12:27.316Z,47.60
2018-11-20T00:14:53.240Z,47.63
2018-11-20T00:17:19.198Z,47.55
2018-11-20T00:19:45.156Z,47.53
2018-11-20T00:22:11.096Z,47.56
2018-11-20T00:24:37.014Z,47.51
2018-11-20T00:27:03.013Z,47.44
2018-11-20T00:29:28.978Z,47.52
2018-11-20T00:31:54.969Z,47.49
2018-11-20T00:34:20.923Z,47.56
2018-11-20T00:36:46.862Z,47.43
2018-11-20T00:39:12.800Z,47.48
2018-11-20T00:41:38.726Z,47.49
2018-11-20T00:44:04.665Z,47.70
2018-11-20T00:46:30.620Z,47.54
2018-11-20T00:48:56.544Z,48.02
2018-11-20T00:51:22.497Z,47.66
2018-11-20T00:53:48.425Z,47.58
2018-11-20T00:56:14.816Z,47.72
2018-11-20T00:58:40.735Z,47.62
2018-11-20T01:01:06.658Z,47.51
2018-11-20T01:03:32.591Z,47.47
2018-11-20T01:05:58.521Z,47.46
2018-11-20T01:08:24.451Z,47.58
2018-11-20T01:10:50.403Z,47.49
2018-11-20T01:13:16.328Z,47.52
2018-11-20T01:15:42.269Z,47.49
2018-11-20T01:18:08.285Z,47.38
2018-11-20T01:20:34.317Z,47.47
2018-11-20T01:23:00.244Z,47.45
2018-11-20T01:25:26.162Z,47.34
2018-11-20T01:27:52.226Z,47.37
2018-11-20T01:30:18.180Z,47.23
2018-11-20T01:32:44.134Z,47.25
2018-11-20T01:35:10.068Z,47.28
2018-11-20T01:37:35.993Z,47.28
2018-11-20T01:40:01.921Z,47.25
2018-11-20T01:42:27.843Z,47.25
2018-11-20T01:44:53.774Z,47.36
2018-11-20T01:47:19.700Z,47.30
2018-11-20T01:49:45.843Z,47.36
2018-11-20T01:52:11.764Z,47.30
2018-11-20T01:54:37.689Z,47.25
2018-11-20T01:57:03.756Z,47.26
2018-11-20T01:59:29.690Z,47.39
2018-11-20T02:01:55.616Z,47.21
2018-11-20T02:04:21.556Z,47.24
2018-11-20T02:06:47.490Z,47.16
2018-11-20T02:09:13.416Z,47.04
2018-11-20T02:11:39.338Z,47.05
2018-11-20T02:14:05.303Z,47.05
2018-11-20T02:16:31.228Z,47.09
2018-11-20T02:18:57.198Z,46.98
2018-11-20T02:21:23.089Z,47.13
2018-11-20T02:23:49.087Z,46.96
2018-11-20T02:26:15.021Z,46.99
2018-11-20T02:28:40.985Z,47.08
2018-11-20T02:31:06.937Z,47.15
2018-11-20T02:33:32.874Z,47.10
2018-11-20T02:35:58.790Z,47.04
2018-11-20T02:38:24.814Z,46.94
2018-11-20T02:40:50.743Z,46.95
2018-11-20T02:43:16.670Z,46.91
2018-11-20T02:45:42.979Z,46.69
2018-11-20T02:48:08.907Z,46.60
2018-11-20T02:50:34.829Z,46.50
2018-11-20T02:53:00.762Z,46.46
2018-11-20T02:55:26.723Z,46.45
2018-11-20T02:57:52.677Z,46.50
2018-11-20T03:00:18.596Z,46.57
2018-11-20T03:02:44.532Z,46.59
2018-11-20T03:05:10.495Z,46.61
2018-11-20T03:07:36.428Z,46.73
2018-11-20T03:10:02.391Z,46.88
2018-11-20T03:12:28.316Z,46.98
2018-11-20T03:14:54.258Z,46.99
2018-11-20T03:17:20.195Z,47.02
2018-11-20T03:19:46.268Z,47.06
2018-11-20T03:22:12.202Z,47.16
2018-11-20T03:24:38.129Z,47.04
2018-11-20T03:27:04.090Z,47.19
2018-11-20T03:29:30.095Z,47.14
2018-11-20T03:31:56.002Z,47.18
2018-11-20T03:34:22.004Z,47.11
2018-11-20T03:36:48.059Z,47.11
2018-11-20T03:39:13.983Z,47.21
2018-11-20T03:41:39.952Z,47.33
2018-11-20T03:44:05.901Z,47.41
2018-11-20T03:46:31.828Z,47.30
2018-11-20T03:48:57.794Z,47.38
2018-11-20T03:51:23.755Z,47.42
2018-11-20T03:53:49.676Z,47.52
2018-11-20T03:56:15.609Z,47.60
2018-11-20T03:58:41.529Z,47.56
2018-11-20T04:01:07.454Z,47.69
2018-11-20T04:03:33.379Z,47.64
2018-11-20T04:05:59.303Z,47.58
2018-11-20T04:08:25.254Z,47.56
2018-11-20T04:10:51.183Z,47.48
2018-11-20T04:13:17.170Z,47.39
2018-11-20T04:15:43.091Z,47.42
2018-11-20T04:18:09.022Z,47.31
2018-11-20T04:20:34.942Z,47.38
2018-11-20T04:23:00.875Z,47.31
2018-11-20T04:25:26.835Z,47.40
2018-11-20T04:27:52.754Z,47.44
2018-11-20T04:30:18.680Z,47.42
2018-11-20T04:32:44.602Z,47.43
2018-11-20T04:35:10.632Z,47.47
2018-11-20T04:37:36.608Z,47.59
2018-11-20T04:40:02.527Z,47.47
2018-11-20T04:42:28.597Z,47.56
2018-11-20T04:44:54.524Z,47.46
2018-11-20T04:47:20.461Z,47.63
2018-11-20T04:49:46.636Z,47.59
2018-11-20T04:52:12.570Z,47.59
2018-11-20T04:54:38.510Z,47.54
2018-11-20T04:57:04.450Z,47.43
2018-11-20T04:59:30.388Z,47.38
2018-11-20T05:01:56.300Z,47.38
2018-11-20T05:04:22.310Z,47.33
2018-11-20T05:06:48.337Z,47.31
2018-11-20T05:09:14.188Z,47.14
2018-11-20T05:11:40.293Z,47.17
2018-11-20T05:14:06.253Z,47.30
2018-11-20T05:16:32.206Z,47.34
2018-11-20T05:18:58.165Z,47.53
2018-11-20T05:21:24.109Z,47.38
2018-11-20T05:23:50.113Z,47.49
2018-11-20T05:26:16.041Z,47.84
2018-11-20T05:28:41.974Z,47.61
2018-11-20T05:31:08.043Z,47.63
2018-11-20T05:33:33.927Z,47.62
2018-11-20T05:35:59.849Z,47.56
2018-11-20T05:38:25.792Z,47.66
2018-11-20T05:40:51.711Z,47.58
2018-11-20T05:43:17.952Z,47.48
2018-11-20T05:45:43.882Z,47.77
2018-11-20T05:48:09.803Z,47.50
2018-11-20T05:50:35.756Z,47.43
2018-11-20T05:53:01.701Z,47.46
2018-11-20T05:55:27.626Z,47.37
2018-11-20T05:57:53.737Z,47.42
2018-11-20T06:00:19.620Z,47.54
2018-11-20T06:02:45.550Z,47.44
2018-11-20T06:05:11.533Z,47.80
2018-11-20T06:07:37.492Z,47.38
2018-11-20T06:10:03.421Z,47.26
2018-11-20T06:12:29.427Z,47.45
2018-11-20T06:14:55.347Z,47.44
2018-11-20T06:17:21.306Z,47.48
2018-11-20T06:19:47.254Z,47.55
2018-11-20T06:22:13.165Z,47.68
2018-11-20T06:24:39.113Z,47.54
2018-11-20T06:27:05.088Z,47.59
2018-11-20T06:29:31.048Z,47.45
2018-11-20T06:31:56.972Z,47.54
2018-11-20T06:34:22.978Z,47.45
2018-11-20T06:36:48.890Z,47.36
2018-11-20T06:39:14.834Z,47.44
2018-11-20T06:41:40.768Z,47.36
2018-11-20T06:44:06.927Z,47.29
2018-11-20T06:46:32.850Z,47.47
2018-11-20T06:48:58.804Z,47.25
2018-11-20T06:51:24.745Z,47.28
2018-11-20T06:53:50.682Z,47.51
2018-11-20T06:56:16.649Z,47.55
2018-11-20T06:58:42.646Z,47.61
2018-11-20T07:01:08.599Z,47.48
2018-11-20T07:03:34.552Z,47.66
2018-11-20T07:06:00.575Z,47.55
2018-11-20T07:08:26.617Z,47.41
2018-11-20T07:10:52.486Z,47.62
2018-11-20T07:13:18.510Z,47.68
2018-11-20T07:15:44.592Z,47.50
2018-11-20T07:18:10.360Z,47.29
2018-11-20T07:20:36.292Z,47.41
2018-11-20T07:23:02.261Z,47.25
2018-11-20T07:25:28.170Z,47.17
2018-11-20T07:27:54.348Z,47.26
2018-11-20T07:30:20.385Z,47.28
2018-11-20T07:32:46.213Z,47.17
2018-11-20T07:35:12.144Z,47.32
2018-11-20T07:37:38.110Z,47.23
2018-11-20T07:40:04.060Z,47.19
2018-11-20T07:42:29.989Z,47.32
2018-11-20T07:44:55.929Z,47.33
2018-11-20T07:47:21.843Z,47.45
2018-11-20T07:49:47.851Z,47.30
2018-11-20T07:52:13.787Z,47.27
2018-11-20T07:54:39.723Z,47.42
2018-11-20T07:57:05.666Z,47.19
2018-11-20T07:59:31.630Z,47.34
2018-11-20T08:01:57.602Z,47.26
2018-11-20T08:04:23.511Z,47.22
2018-11-20T08:06:49.447Z,47.18
2018-11-20T08:09:15.400Z,47.17
2018-11-20T08:11:41.327Z,47.18
2018-11-20T08:14:07.278Z,47.14
2018-11-20T08:16:33.221Z,47.05
2018-11-20T08:18:59.187Z,47.03
2018-11-20T08:21:25.105Z,46.95
2018-11-20T08:23:51.055Z,47.03
2018-11-20T08:26:17.190Z,47.11
2018-11-20T08:28:43.064Z,47.14
2018-11-20T08:31:09.093Z,47.18
2018-11-20T08:33:35.041Z,47.37
2018-11-20T08:36:00.943Z,47.26
2018-11-20T08:38:26.872Z,47.28
2018-11-20T08:40:52.823Z,47.29
2018-11-20T08:43:18.766Z,47.44
2018-11-20T08:45:44.723Z,47.32
2018-11-20T08:48:10.691Z,47.20
2018-11-20T08:50:36.624Z,47.32
2018-11-20T08:53:02.607Z,47.36
2018-11-20T08:55:28.550Z,47.39
2018-11-20T08:57:54.615Z,47.47
2018-11-20T09:00:20.542Z,47.63
2018-11-20T09:05:12.405Z,47.61
2018-11-20T09:07:38.404Z,47.61
2018-11-20T09:10:04.352Z,47.60
2018-11-20T09:12:30.235Z,47.60
2018-11-20T09:14:56.169Z,47.57
2018-11-20T09:17:22.098Z,47.49
2018-11-20T09:19:48.363Z,47.45
2018-11-20T09:22:14.320Z,47.47
2018-11-20T09:24:40.283Z,47.46
2018-11-20T09:27:06.214Z,47.43
2018-11-20T09:29:32.145Z,47.44
2018-11-20T09:31:58.086Z,47.37
2018-11-20T09:34:24.065Z,47.75
2018-11-20T09:36:49.961Z,47.57
2018-11-20T09:39:15.956Z,47.65
2018-11-20T09:41:41.884Z,47.57
2018-11-20T09:44:07.843Z,47.53
2018-11-20T09:46:33.925Z,47.04
2018-11-20T09:48:59.785Z,47.00
2018-11-20T09:51:25.790Z,46.99
2018-11-20T09:53:51.772Z,47.08
2018-11-20T09:56:17.750Z,47.06
2018-11-20T09:58:43.671Z,47.12
2018-11-20T10:01:09.626Z,47.13
2018-11-20T10:03:35.598Z,47.18
2018-11-20T10:06:01.534Z,47.28
2018-11-20T10:08:27.537Z,47.25
2018-11-20T10:10:53.495Z,47.22
2018-11-20T10:13:19.431Z,47.32
2018-11-20T10:15:45.367Z,47.52
2018-11-20T10:18:11.290Z,47.86
2018-11-20T10:20:37.210Z,48.05
2018-11-20T10:23:03.216Z,45.75
2018-11-20T10:25:29.224Z,43.90
2018-11-20T10:27:55.078Z,44.82
2018-11-20T10:30:21.232Z,45.35
2018-11-20T10:32:47.174Z,45.73
2018-11-20T10:35:13.097Z,46.15
2018-11-20T10:37:39.118Z,46.12
2018-11-20T10:40:05.069Z,46.22
2018-11-20T10:42:31.011Z,46.33
2018-11-20T10:44:56.941Z,46.47
2018-11-20T10:47:22.905Z,46.54
2018-11-20T10:49:48.866Z,46.65
2018-11-20T10:52:15.021Z,46.66
2018-11-20T10:54:41.185Z,46.79
2018-11-20T10:57:07.112Z,46.84
2018-11-20T10:59:33.091Z,46.94
2018-11-20T11:01:59.109Z,46.90
2018-11-20T11:04:25.111Z,46.96
2018-11-20T11:06:51.232Z,46.80
2018-11-20T11:09:17.039Z,46.76
2018-11-20T11:11:43.129Z,46.76
2018-11-20T11:14:08.886Z,46.82
2018-11-20T11:16:34.823Z,46.78
2018-11-20T11:19:00.826Z,46.76
2018-11-20T11:21:26.839Z,46.65
2018-11-20T11:23:52.769Z,46.51
2018-11-20T11:26:18.736Z,46.41
2018-11-20T11:28:44.657Z,46.42
2018-11-20T11:31:10.740Z,46.29
2018-11-20T11:33:36.687Z,46.33
2018-11-20T11:36:02.617Z,46.31
2018-11-20T11:38:28.750Z,46.22
2018-11-20T11:40:54.680Z,46.16
2018-11-20T11:43:20.628Z,46.15
2018-11-20T11:45:46.607Z,46.16
2018-11-20T11:48:12.530Z,46.11
2018-11-20T11:50:38.469Z,46.13
2018-11-20T11:53:04.407Z,46.10
2018-11-20T11:55:30.448Z,46.14
2018-11-20T11:57:56.369Z,46.10
2018-11-20T12:00:22.328Z,46.17
2018-11-20T12:05:13.440Z,46.13
2018-11-20T12:07:39.370Z,46.09
2018-11-20T12:10:05.298Z,46.01
2018-11-20T12:12:31.241Z,46.10
2018-11-20T12:14:57.241Z,46.07
2018-11-20T12:17:24.292Z,46.18
2018-11-20T12:19:50.224Z,46.19
2018-11-20T12:22:16.150Z,46.30
2018-11-20T12:24:42.103Z,46.30
2018-11-20T12:27:08.038Z,46.35
2018-11-20T12:29:34.783Z,46.42
2018-11-20T12:31:59.921Z,46.36
2018-11-20T12:34:25.874Z,46.36
2018-11-20T12:36:51.794Z,46.27
2018-11-20T12:39:19.860Z,46.33
2018-11-20T12:41:44.420Z,46.60
2018-11-20T12:44:09.615Z,46.73
2018-11-20T12:46:35.595Z,46.68
2018-11-20T12:49:01.566Z,46.79
2018-11-20T12:51:27.554Z,46.84
2018-11-20T12:53:53.503Z,46.80
2018-11-20T12:56:19.460Z,46.86
2018-11-20T12:58:45.440Z,46.86
2018-11-20T13:01:11.576Z,46.73
2018-11-20T13:03:37.516Z,46.69
2018-11-20T13:06:03.455Z,46.75
2018-11-20T13:08:31.164Z,46.86
2018-11-20T13:10:55.373Z,46.83
2018-11-20T13:13:21.378Z,46.74
2018-11-20T13:15:49.430Z,46.76
2018-11-20T13:18:13.266Z,46.71
2018-11-20T13:20:39.209Z,46.70
2018-11-20T13:23:05.136Z,46.73
2018-11-20T13:25:31.071Z,46.69
2018-11-20T13:27:57.074Z,46.70
2018-11-20T13:30:23.108Z,46.34
2018-11-20T13:32:49.047Z,46.47
2018-11-20T13:35:15.233Z,46.47
2018-11-20T13:37:41.222Z,46.40
2018-11-20T13:40:07.157Z,46.43
2018-11-20T13:42:33.169Z,46.37
2018-11-20T13:44:59.196Z,46.30
2018-11-20T13:47:25.120Z,46.28
2018-11-20T13:49:51.995Z,46.29
2018-11-20T13:52:17.065Z,46.29
2018-11-20T13:54:43.085Z,46.42
2018-11-20T13:57:09.037Z,46.27
2018-11-20T13:59:34.973Z,46.17
2018-11-20T14:02:00.984Z,46.21
2018-11-20T14:04:26.920Z,46.20
2018-11-20T14:06:52.848Z,46.51
2018-11-20T14:09:18.774Z,46.26
2018-11-20T14:11:44.711Z,46.21
2018-11-20T14:14:10.705Z,46.12
2018-11-20T14:16:36.656Z,46.22
2018-11-20T14:19:02.618Z,46.34
2018-11-20T14:21:28.554Z,46.35
2018-11-20T14:23:54.478Z,46.49
2018-11-20T14:26:20.437Z,46.96
2018-11-20T14:28:46.356Z,46.67
2018-11-20T14:31:12.303Z,46.76
2018-11-20T14:33:38.293Z,46.71
2018-11-20T14:36:04.260Z,46.71
2018-11-20T14:38:30.220Z,46.72
2018-11-20T14:40:56.207Z,46.77
2018-11-20T14:43:22.169Z,46.85
2018-11-20T14:45:48.121Z,46.96
2018-11-20T14:48:14.109Z,46.87
2018-11-20T14:50:40.155Z,46.90
2018-11-20T14:53:06.105Z,47.00
2018-11-20T14:55:32.042Z,47.11
2018-11-20T14:57:57.982Z,46.99
2018-11-20T15:00:23.937Z,47.10
2018-11-20T15:02:49.879Z,46.94
2018-11-20T15:05:15.804Z,46.79
2018-11-20T15:07:41.758Z,46.84
2018-11-20T15:10:07.770Z,46.88
2018-11-20T15:12:33.706Z,46.78
2018-11-20T15:14:59.705Z,46.74
2018-11-20T15:17:25.636Z,46.72
2018-11-20T15:19:51.571Z,46.67
2018-11-20T15:22:17.664Z,46.63
2018-11-20T15:24:43.638Z,46.91
2018-11-20T15:27:09.591Z,46.93
2018-11-20T15:29:35.576Z,46.98
2018-11-20T15:32:01.537Z,47.07
2018-11-20T15:34:27.469Z,47.40
2018-11-20T15:36:53.439Z,47.04
2018-11-20T15:39:19.363Z,47.45
2018-11-20T15:41:45.289Z,47.72
2018-11-20T15:44:11.322Z,48.23
2018-11-20T15:46:37.251Z,48.41
2018-11-20T15:49:03.210Z,48.65
2018-11-20T15:51:29.142Z,48.81
2018-11-20T15:53:55.104Z,48.87
2018-11-20T15:56:21.041Z,48.98
2018-11-20T15:58:47.122Z,48.97
2018-11-20T16:01:13.059Z,48.95
2018-11-20T16:03:39.008Z,48.89
2018-11-20T16:06:04.947Z,48.81
2018-11-20T16:08:30.892Z,48.87
2018-11-20T16:10:56.833Z,48.89
2018-11-20T16:13:22.772Z,48.95
2018-11-20T16:15:48.780Z,48.90
2018-11-20T16:18:14.744Z,48.56
2018-11-20T16:20:40.676Z,48.95
2018-11-20T16:23:06.605Z,48.77
2018-11-20T16:25:32.610Z,48.89
2018-11-20T16:27:58.560Z,48.83
2018-11-20T16:30:24.494Z,49.13
2018-11-20T16:32:50.471Z,49.01
2018-11-20T16:35:16.392Z,48.78
2018-11-20T16:37:42.461Z,48.75
2018-11-20T16:40:08.481Z,48.90
2018-11-20T16:42:34.499Z,48.69
2018-11-20T16:45:00.426Z,48.65
2018-11-20T16:47:26.362Z,48.61
2018-11-20T16:49:52.380Z,48.51
2018-11-20T16:52:18.353Z,48.56
2018-11-20T16:54:44.316Z,48.61
2018-11-20T16:57:10.244Z,48.46
2018-11-20T16:59:36.308Z,48.74
2018-11-20T17:02:02.249Z,46.87
2018-11-20T17:04:28.230Z,45.98
2018-11-20T17:06:54.271Z,46.97
2018-11-20T17:09:20.210Z,47.35
2018-11-20T17:11:46.146Z,47.64
2018-11-20T17:14:12.155Z,47.92
2018-11-20T17:16:38.089Z,47.99
2018-11-20T17:19:04.046Z,47.96
2018-11-20T17:21:30.000Z,48.14
2018-11-20T17:23:55.936Z,47.98
2018-11-20T17:26:21.886Z,48.29
2018-11-20T17:28:47.842Z,48.29
2018-11-20T17:31:13.859Z,48.19
2018-11-20T17:33:39.838Z,48.21
2018-11-20T17:36:05.766Z,48.10
2018-11-20T17:38:31.746Z,48.11
2018-11-20T17:40:57.794Z,48.10
2018-11-20T17:43:23.736Z,48.00
2018-11-20T17:45:49.721Z,48.21
2018-11-20T17:48:15.616Z,47.99
2018-11-20T17:50:41.543Z,47.58
2018-11-20T17:53:07.501Z,47.35
2018-11-20T17:55:33.447Z,47.57
2018-11-20T17:57:59.427Z,47.67
2018-11-20T18:00:25.425Z,47.81
2018-11-20T18:02:51.392Z,47.82
2018-11-20T18:05:17.326Z,47.99
2018-11-20T18:07:43.357Z,48.05
2018-11-20T18:10:09.327Z,48.02
2018-11-20T18:12:35.360Z,48.04
2018-11-20T18:15:01.243Z,47.92
2018-11-20T18:17:27.242Z,47.95
2018-11-20T18:19:53.190Z,48.01
2018-11-20T18:22:19.261Z,47.95
2018-11-20T18:24:45.197Z,47.98
2018-11-20T18:27:18.541Z,47.87
2018-11-20T18:29:37.112Z,47.79
2018-11-20T18:32:03.080Z,47.83
2018-11-20T18:34:29.083Z,47.81
2018-11-20T18:36:55.003Z,47.90
2018-11-20T18:39:20.949Z,47.99
2018-11-20T18:41:46.923Z,48.10
2018-11-20T18:44:12.894Z,48.00
2018-11-20T18:46:38.858Z,48.08
2018-11-20T18:49:04.915Z,48.02
2018-11-20T18:51:30.893Z,48.20
2018-11-20T18:53:56.844Z,47.73
2018-11-20T18:56:22.988Z,47.75
2018-11-20T18:58:49.103Z,47.69
2018-11-20T19:01:15.034Z,47.81
2018-11-20T19:03:40.986Z,47.86
2018-11-20T19:06:06.956Z,47.84
2018-11-20T19:08:32.967Z,47.80
2018-11-20T19:10:58.922Z,47.82
2018-11-20T19:13:25.020Z,47.82
2018-11-20T19:15:50.983Z,47.72
2018-11-20T19:18:16.905Z,48.16
2018-11-20T19:20:42.819Z,47.85
2018-11-20T19:23:08.854Z,47.92
2018-11-20T19:25:34.790Z,47.81
2018-11-20T19:28:00.716Z,47.87
2018-11-20T19:30:26.734Z,47.85
2018-11-20T19:32:52.762Z,47.85
2018-11-20T19:35:18.771Z,47.92
2018-11-20T19:37:44.835Z,47.89
2018-11-20T19:40:10.862Z,47.93
2018-11-20T19:42:36.865Z,47.95
2018-11-20T19:45:02.806Z,47.98
2018-11-20T19:47:28.830Z,48.03
2018-11-20T19:49:54.886Z,48.12
2018-11-20T19:52:20.816Z,47.94
2018-11-20T19:54:46.762Z,47.93
2018-11-20T19:57:12.723Z,47.97
2018-11-20T19:59:39.676Z,47.91
2018-11-20T20:02:05.628Z,47.85
2018-11-20T20:04:31.558Z,47.86
2018-11-20T20:06:57.514Z,47.87
2018-11-20T20:09:23.522Z,47.80
2018-11-20T20:11:50.466Z,47.89
2018-11-20T20:14:17.398Z,47.88
2018-11-20T20:16:43.474Z,47.86
2018-11-20T20:19:09.694Z,48.12
2018-11-20T20:21:35.634Z,48.06
2018-11-20T20:24:01.633Z,47.97
2018-11-20T20:26:27.578Z,48.10
2018-11-20T20:28:53.524Z,48.10
2018-11-20T20:31:19.547Z,48.15
2018-11-20T20:33:45.666Z,48.07
2018-11-20T20:36:11.877Z,48.03
2018-11-20T20:38:37.891Z,48.06
2018-11-20T20:41:03.833Z,48.01
2018-11-20T20:43:29.843Z,47.93
2018-11-20T20:45:56.818Z,47.99
2018-11-20T20:48:22.830Z,47.96
2018-11-20T20:50:48.764Z,47.95
2018-11-20T20:53:14.916Z,47.90
2018-11-20T20:55:40.851Z,47.87
2018-11-20T20:58:06.812Z,47.89
2018-11-20T21:00:32.757Z,47.91
2018-11-20T21:02:58.833Z,47.92
2018-11-20T21:05:24.765Z,47.98
2018-11-20T21:07:50.763Z,47.93
2018-11-20T21:10:16.737Z,47.94
2018-11-20T21:12:42.668Z,48.01
2018-11-20T21:15:08.627Z,48.04
2018-11-20T21:18:10.744Z,48.03
2018-11-20T21:20:36.697Z,48.06
2018-11-20T21:23:02.638Z,48.10
2018-11-20T21:25:28.572Z,47.92
2018-11-20T21:27:54.529Z,47.92
2018-11-20T21:30:20.488Z,47.88
2018-11-20T21:32:46.435Z,47.86
2018-11-20T21:35:13.491Z,47.74
2018-11-20T21:37:39.422Z,47.84
2018-11-20T21:40:05.459Z,47.88
2018-11-20T21:42:31.393Z,47.75
2018-11-20T21:44:57.336Z,47.98
2018-11-20T21:47:23.348Z,47.99
2018-11-20T21:49:49.376Z,47.83
2018-11-20T21:52:15.336Z,47.79
2018-11-20T21:54:41.555Z,47.85
2018-11-20T21:57:07.511Z,48.01
2018-11-20T21:59:33.458Z,47.92
2018-11-20T22:01:59.406Z,47.87
2018-11-20T22:04:25.389Z,47.93
2018-11-20T22:06:51.377Z,48.08
2018-11-20T22:09:17.361Z,48.00
2018-11-20T22:11:43.272Z,47.98
2018-11-20T22:14:09.198Z,47.96
2018-11-20T22:16:35.131Z,48.15
2018-11-20T22:19:01.061Z,47.89
2018-11-20T22:21:27.025Z,47.85
2018-11-20T22:23:52.970Z,47.84
2018-11-20T22:26:18.897Z,47.79
2018-11-20T22:28:44.829Z,47.87
2018-11-20T22:31:10.748Z,47.91
2018-11-20T22:33:36.699Z,47.89
2018-11-20T22:36:02.619Z,47.86
2018-11-20T22:38:28.719Z,47.80
2018-11-20T22:40:54.644Z,47.81
2018-11-20T22:43:20.594Z,47.91
2018-11-20T22:45:46.529Z,47.83
2018-11-20T22:48:12.476Z,47.79
2018-11-20T22:50:38.478Z,47.84
2018-11-20T22:53:04.440Z,47.65
2018-11-20T22:55:30.360Z,47.52
2018-11-20T22:57:56.348Z,47.54
2018-11-20T23:00:22.291Z,47.68
2018-11-20T23:02:48.257Z,47.64
2018-11-20T23:05:14.200Z,47.51
2018-11-20T23:07:40.113Z,47.42
2018-11-20T23:10:06.038Z,47.46
2018-11-20T23:12:32.012Z,47.50
2018-11-20T23:14:57.943Z,47.44
2018-11-20T23:17:23.890Z,47.48
2018-11-20T23:19:49.800Z,47.46
2018-11-20T23:22:15.750Z,47.47
2018-11-20T23:24:41.811Z,47.44
2018-11-20T23:27:08.386Z,47.25
2018-11-20T23:29:33.698Z,47.52
2018-11-20T23:31:59.839Z,47.41
2018-11-20T23:34:25.893Z,47.34
2018-11-20T23:36:52.040Z,47.69
2018-11-20T23:39:17.991Z,47.60
2018-11-20T23:41:43.916Z,47.58
2018-11-20T23:44:09.859Z,47.53
2018-11-20T23:46:35.826Z,47.45
2018-11-20T23:49:01.931Z,47.61
2018-11-20T23:51:27.896Z,47.54
2018-11-20T23:53:53.876Z,47.49
2018-11-20T23:56:19.840Z,47.45
2018-11-20T23:58:45.778Z,47.46
